Аэропорт: Ширак. Гюмри

ICAO: UDSG

METAR:
2024-05-18 17:30:00
UDSG 181730Z 08005KT 9999 FEW049 08/01 Q1019 NOSIG
TAF:
2024-05-18 17:00:00
TAF UDSG 181700Z 1818/1918 03006KT 9999 FEW050